sensor_id;sensor_type;location;lat;lon;timestamp;P1;durP1;ratioP1;P2;durP2;ratioP2
20277;SDS011;10298;49.716;17.806;2022-07-30T00:01:31;20.15;;;15.25;;
20277;SDS011;10298;49.716;17.806;2022-07-30T00:04:01;21.17;;;15.85;;
20277;SDS011;10298;49.716;17.806;2022-07-30T00:06:28;18.23;;;15.73;;
20277;SDS011;10298;49.716;17.806;2022-07-30T00:08:55;19.98;;;15.40;;
20277;SDS011;10298;49.716;17.806;2022-07-30T00:11:22;22.50;;;15.77;;
20277;SDS011;10298;49.716;17.806;2022-07-30T00:13:53;17.30;;;14.95;;
20277;SDS011;10298;49.716;17.806;2022-07-30T00:16:21;17.30;;;15.50;;
20277;SDS011;10298;49.716;17.806;2022-07-30T00:18:48;20.10;;;16.00;;
20277;SDS011;10298;49.716;17.806;2022-07-30T00:21:16;21.58;;;16.00;;
20277;SDS011;10298;49.716;17.806;2022-07-30T00:24:01;18.95;;;15.43;;
20277;SDS011;10298;49.716;17.806;2022-07-30T00:26:29;16.50;;;14.32;;
20277;SDS011;10298;49.716;17.806;2022-07-30T00:28:56;20.33;;;16.20;;
20277;SDS011;10298;49.716;17.806;2022-07-30T00:31:23;20.40;;;14.85;;
20277;SDS011;10298;49.716;17.806;2022-07-30T00:33:50;19.23;;;16.40;;
20277;SDS011;10298;49.716;17.806;2022-07-30T00:36:16;18.17;;;15.00;;
20277;SDS011;10298;49.716;17.806;2022-07-30T00:38:43;18.15;;;14.98;;
20277;SDS011;10298;49.716;17.806;2022-07-30T00:41:10;17.77;;;14.82;;
20277;SDS011;10298;49.716;17.806;2022-07-30T00:43:37;18.58;;;15.75;;
20277;SDS011;10298;49.716;17.806;2022-07-30T00:46:04;18.23;;;16.23;;
20277;SDS011;10298;49.716;17.806;2022-07-30T00:48:31;17.80;;;15.65;;
20277;SDS011;10298;49.716;17.806;2022-07-30T00:50:58;18.75;;;14.75;;
20277;SDS011;10298;49.716;17.806;2022-07-30T00:53:26;17.17;;;15.15;;
20277;SDS011;10298;49.716;17.806;2022-07-30T00:55:53;19.55;;;17.10;;
20277;SDS011;10298;49.716;17.806;2022-07-30T00:58:20;18.42;;;16.27;;
20277;SDS011;10298;49.716;17.806;2022-07-30T01:00:46;20.33;;;17.02;;
20277;SDS011;10298;49.716;17.806;2022-07-30T01:03:13;20.02;;;17.75;;
20277;SDS011;10298;49.716;17.806;2022-07-30T01:05:40;22.35;;;16.23;;
20277;SDS011;10298;49.716;17.806;2022-07-30T01:08:07;22.35;;;17.45;;
20277;SDS011;10298;49.716;17.806;2022-07-30T01:10:34;21.13;;;17.30;;
20277;SDS011;10298;49.716;17.806;2022-07-30T01:13:01;19.75;;;17.63;;
20277;SDS011;10298;49.716;17.806;2022-07-30T01:15:29;24.15;;;17.77;;
20277;SDS011;10298;49.716;17.806;2022-07-30T01:17:57;20.50;;;17.13;;
20277;SDS011;10298;49.716;17.806;2022-07-30T01:20:34;20.70;;;17.38;;
20277;SDS011;10298;49.716;17.806;2022-07-30T01:23:07;23.67;;;18.52;;
20277;SDS011;10298;49.716;17.806;2022-07-30T01:28:07;25.48;;;17.83;;
20277;SDS011;10298;49.716;17.806;2022-07-30T01:30:39;22.05;;;18.38;;
20277;SDS011;10298;49.716;17.806;2022-07-30T01:33:11;21.38;;;18.15;;
20277;SDS011;10298;49.716;17.806;2022-07-30T01:35:41;21.70;;;18.58;;
20277;SDS011;10298;49.716;17.806;2022-07-30T01:38:11;23.92;;;19.35;;
20277;SDS011;10298;49.716;17.806;2022-07-30T01:40:42;22.77;;;18.83;;
20277;SDS011;10298;49.716;17.806;2022-07-30T01:43:10;22.17;;;18.00;;
20277;SDS011;10298;49.716;17.806;2022-07-30T01:45:38;21.63;;;19.00;;
20277;SDS011;10298;49.716;17.806;2022-07-30T01:48:10;24.42;;;19.00;;
20277;SDS011;10298;49.716;17.806;2022-07-30T01:50:39;22.17;;;18.58;;
20277;SDS011;10298;49.716;17.806;2022-07-30T01:53:09;23.75;;;19.80;;
20277;SDS011;10298;49.716;17.806;2022-07-30T01:55:44;22.95;;;19.23;;
20277;SDS011;10298;49.716;17.806;2022-07-30T01:58:13;21.75;;;17.98;;
20277;SDS011;10298;49.716;17.806;2022-07-30T02:00:43;21.13;;;18.83;;
20277;SDS011;10298;49.716;17.806;2022-07-30T02:03:11;24.15;;;17.92;;
20277;SDS011;10298;49.716;17.806;2022-07-30T02:05:39;22.25;;;18.08;;
20277;SDS011;10298;49.716;17.806;2022-07-30T02:08:28;25.48;;;19.08;;
20277;SDS011;10298;49.716;17.806;2022-07-30T02:11:14;21.48;;;18.52;;
20277;SDS011;10298;49.716;17.806;2022-07-30T02:14:05;26.30;;;20.40;;
20277;SDS011;10298;49.716;17.806;2022-07-30T02:16:35;23.75;;;19.08;;
20277;SDS011;10298;49.716;17.806;2022-07-30T02:19:08;26.25;;;20.55;;
20277;SDS011;10298;49.716;17.806;2022-07-30T02:21:43;23.55;;;19.40;;
20277;SDS011;10298;49.716;17.806;2022-07-30T02:24:18;25.13;;;20.02;;
20277;SDS011;10298;49.716;17.806;2022-07-30T02:26:48;25.63;;;20.00;;
20277;SDS011;10298;49.716;17.806;2022-07-30T02:29:19;24.67;;;19.60;;
20277;SDS011;10298;49.716;17.806;2022-07-30T02:31:48;28.50;;;20.23;;
20277;SDS011;10298;49.716;17.806;2022-07-30T02:34:17;29.45;;;21.83;;
20277;SDS011;10298;49.716;17.806;2022-07-30T02:36:48;31.45;;;22.00;;
20277;SDS011;10298;49.716;17.806;2022-07-30T02:39:17;30.08;;;23.40;;
20277;SDS011;10298;49.716;17.806;2022-07-30T02:41:45;29.20;;;21.98;;
20277;SDS011;10298;49.716;17.806;2022-07-30T02:44:15;29.08;;;21.65;;
20277;SDS011;10298;49.716;17.806;2022-07-30T02:46:45;35.17;;;23.17;;
20277;SDS011;10298;49.716;17.806;2022-07-30T02:49:14;29.83;;;22.10;;
20277;SDS011;10298;49.716;17.806;2022-07-30T02:51:45;33.45;;;23.15;;
20277;SDS011;10298;49.716;17.806;2022-07-30T02:54:16;30.50;;;21.15;;
20277;SDS011;10298;49.716;17.806;2022-07-30T02:56:45;29.60;;;21.77;;
20277;SDS011;10298;49.716;17.806;2022-07-30T02:59:14;30.10;;;20.50;;
20277;SDS011;10298;49.716;17.806;2022-07-30T03:01:43;32.13;;;21.77;;
20277;SDS011;10298;49.716;17.806;2022-07-30T03:04:12;29.90;;;21.38;;
20277;SDS011;10298;49.716;17.806;2022-07-30T03:06:40;31.38;;;21.65;;
20277;SDS011;10298;49.716;17.806;2022-07-30T03:09:08;28.77;;;20.10;;
20277;SDS011;10298;49.716;17.806;2022-07-30T03:11:39;27.38;;;20.02;;
20277;SDS011;10298;49.716;17.806;2022-07-30T03:14:07;30.67;;;21.45;;
20277;SDS011;10298;49.716;17.806;2022-07-30T03:16:35;30.45;;;21.55;;
20277;SDS011;10298;49.716;17.806;2022-07-30T03:19:05;28.02;;;19.73;;
20277;SDS011;10298;49.716;17.806;2022-07-30T03:21:37;28.98;;;21.83;;
20277;SDS011;10298;49.716;17.806;2022-07-30T03:24:06;32.95;;;21.77;;
20277;SDS011;10298;49.716;17.806;2022-07-30T03:26:37;31.20;;;22.10;;
20277;SDS011;10298;49.716;17.806;2022-07-30T03:29:05;29.95;;;22.05;;
20277;SDS011;10298;49.716;17.806;2022-07-30T03:31:34;30.73;;;22.00;;
20277;SDS011;10298;49.716;17.806;2022-07-30T03:34:04;28.02;;;20.80;;
20277;SDS011;10298;49.716;17.806;2022-07-30T03:36:37;30.55;;;22.08;;
20277;SDS011;10298;49.716;17.806;2022-07-30T03:39:06;32.20;;;23.13;;
20277;SDS011;10298;49.716;17.806;2022-07-30T03:41:34;30.95;;;22.95;;
20277;SDS011;10298;49.716;17.806;2022-07-30T03:44:03;32.00;;;22.17;;
20277;SDS011;10298;49.716;17.806;2022-07-30T03:46:31;32.22;;;22.02;;
20277;SDS011;10298;49.716;17.806;2022-07-30T03:49:00;27.52;;;20.33;;
20277;SDS011;10298;49.716;17.806;2022-07-30T03:51:27;28.52;;;20.45;;
20277;SDS011;10298;49.716;17.806;2022-07-30T03:53:58;31.15;;;21.58;;
20277;SDS011;10298;49.716;17.806;2022-07-30T03:56:26;29.20;;;20.45;;
20277;SDS011;10298;49.716;17.806;2022-07-30T03:58:53;32.35;;;23.08;;
20277;SDS011;10298;49.716;17.806;2022-07-30T04:01:24;29.88;;;22.27;;
20277;SDS011;10298;49.716;17.806;2022-07-30T04:03:51;33.70;;;24.85;;
20277;SDS011;10298;49.716;17.806;2022-07-30T04:06:18;29.95;;;23.50;;
20277;SDS011;10298;49.716;17.806;2022-07-30T04:08:45;31.35;;;23.17;;
20277;SDS011;10298;49.716;17.806;2022-07-30T04:11:12;31.27;;;23.13;;
20277;SDS011;10298;49.716;17.806;2022-07-30T04:13:39;31.52;;;23.58;;
20277;SDS011;10298;49.716;17.806;2022-07-30T04:16:17;31.15;;;23.38;;
20277;SDS011;10298;49.716;17.806;2022-07-30T04:19:07;29.88;;;22.88;;
20277;SDS011;10298;49.716;17.806;2022-07-30T04:21:47;30.42;;;23.15;;
20277;SDS011;10298;49.716;17.806;2022-07-30T04:24:15;31.35;;;23.75;;
20277;SDS011;10298;49.716;17.806;2022-07-30T04:26:44;31.50;;;22.52;;
20277;SDS011;10298;49.716;17.806;2022-07-30T04:29:12;29.83;;;22.27;;
20277;SDS011;10298;49.716;17.806;2022-07-30T04:31:45;29.08;;;21.23;;
20277;SDS011;10298;49.716;17.806;2022-07-30T04:34:12;30.23;;;22.90;;
20277;SDS011;10298;49.716;17.806;2022-07-30T04:36:40;27.25;;;21.52;;
20277;SDS011;10298;49.716;17.806;2022-07-30T04:39:11;29.10;;;23.83;;
20277;SDS011;10298;49.716;17.806;2022-07-30T04:41:38;29.23;;;23.05;;
20277;SDS011;10298;49.716;17.806;2022-07-30T04:44:14;27.23;;;22.63;;
20277;SDS011;10298;49.716;17.806;2022-07-30T04:46:41;28.80;;;23.10;;
20277;SDS011;10298;49.716;17.806;2022-07-30T04:49:09;27.27;;;22.50;;
20277;SDS011;10298;49.716;17.806;2022-07-30T04:51:37;31.15;;;24.10;;
20277;SDS011;10298;49.716;17.806;2022-07-30T04:54:05;28.60;;;23.13;;
20277;SDS011;10298;49.716;17.806;2022-07-30T04:56:41;31.65;;;23.63;;
20277;SDS011;10298;49.716;17.806;2022-07-30T04:59:26;33.47;;;25.00;;
20277;SDS011;10298;49.716;17.806;2022-07-30T05:01:53;32.92;;;24.70;;
20277;SDS011;10298;49.716;17.806;2022-07-30T05:04:22;29.30;;;23.45;;
20277;SDS011;10298;49.716;17.806;2022-07-30T05:06:51;29.85;;;23.80;;
20277;SDS011;10298;49.716;17.806;2022-07-30T05:09:18;30.00;;;22.63;;
20277;SDS011;10298;49.716;17.806;2022-07-30T05:11:50;28.27;;;23.65;;
20277;SDS011;10298;49.716;17.806;2022-07-30T05:14:18;25.58;;;21.05;;
20277;SDS011;10298;49.716;17.806;2022-07-30T05:16:45;21.92;;;18.55;;
20277;SDS011;10298;49.716;17.806;2022-07-30T05:19:12;22.77;;;18.45;;
20277;SDS011;10298;49.716;17.806;2022-07-30T05:21:39;23.50;;;17.75;;
20277;SDS011;10298;49.716;17.806;2022-07-30T05:24:06;21.60;;;16.45;;
20277;SDS011;10298;49.716;17.806;2022-07-30T05:26:33;19.67;;;17.30;;
20277;SDS011;10298;49.716;17.806;2022-07-30T05:29:00;23.15;;;18.38;;
20277;SDS011;10298;49.716;17.806;2022-07-30T05:31:32;23.95;;;19.85;;
20277;SDS011;10298;49.716;17.806;2022-07-30T05:33:59;26.15;;;19.83;;
20277;SDS011;10298;49.716;17.806;2022-07-30T05:36:28;23.35;;;18.13;;
20277;SDS011;10298;49.716;17.806;2022-07-30T05:38:56;22.38;;;17.83;;
20277;SDS011;10298;49.716;17.806;2022-07-30T05:41:23;22.17;;;19.13;;
20277;SDS011;10298;49.716;17.806;2022-07-30T05:43:58;24.75;;;18.35;;
20277;SDS011;10298;49.716;17.806;2022-07-30T05:46:25;24.33;;;17.52;;
20277;SDS011;10298;49.716;17.806;2022-07-30T05:48:53;24.10;;;18.33;;
20277;SDS011;10298;49.716;17.806;2022-07-30T05:51:20;24.90;;;19.25;;
20277;SDS011;10298;49.716;17.806;2022-07-30T05:53:47;28.58;;;21.48;;
20277;SDS011;10298;49.716;17.806;2022-07-30T05:56:15;31.42;;;21.67;;
20277;SDS011;10298;49.716;17.806;2022-07-30T05:58:42;29.88;;;21.77;;
20277;SDS011;10298;49.716;17.806;2022-07-30T06:01:09;32.63;;;22.45;;
20277;SDS011;10298;49.716;17.806;2022-07-30T06:03:37;29.30;;;21.73;;
20277;SDS011;10298;49.716;17.806;2022-07-30T06:06:04;28.33;;;21.33;;
20277;SDS011;10298;49.716;17.806;2022-07-30T06:08:33;29.42;;;20.73;;
20277;SDS011;10298;49.716;17.806;2022-07-30T06:11:00;28.85;;;21.40;;
20277;SDS011;10298;49.716;17.806;2022-07-30T06:13:27;28.38;;;19.65;;
20277;SDS011;10298;49.716;17.806;2022-07-30T06:15:54;24.50;;;18.38;;
20277;SDS011;10298;49.716;17.806;2022-07-30T06:18:22;22.67;;;18.10;;
20277;SDS011;10298;49.716;17.806;2022-07-30T06:20:49;23.92;;;18.30;;
20277;SDS011;10298;49.716;17.806;2022-07-30T06:23:17;24.70;;;18.17;;
20277;SDS011;10298;49.716;17.806;2022-07-30T06:25:45;24.45;;;17.45;;
20277;SDS011;10298;49.716;17.806;2022-07-30T06:28:16;27.80;;;19.63;;
20277;SDS011;10298;49.716;17.806;2022-07-30T06:31:04;27.13;;;18.80;;
20277;SDS011;10298;49.716;17.806;2022-07-30T06:33:32;25.20;;;18.85;;
20277;SDS011;10298;49.716;17.806;2022-07-30T06:35:59;25.35;;;18.42;;
20277;SDS011;10298;49.716;17.806;2022-07-30T06:38:26;25.38;;;18.77;;
20277;SDS011;10298;49.716;17.806;2022-07-30T06:40:53;26.25;;;19.35;;
20277;SDS011;10298;49.716;17.806;2022-07-30T06:43:27;19.88;;;16.77;;
20277;SDS011;10298;49.716;17.806;2022-07-30T06:45:54;20.67;;;17.13;;
20277;SDS011;10298;49.716;17.806;2022-07-30T06:48:21;22.45;;;17.88;;
20277;SDS011;10298;49.716;17.806;2022-07-30T06:50:49;20.60;;;16.80;;
20277;SDS011;10298;49.716;17.806;2022-07-30T06:53:15;21.73;;;18.08;;
20277;SDS011;10298;49.716;17.806;2022-07-30T06:55:42;18.42;;;16.40;;
20277;SDS011;10298;49.716;17.806;2022-07-30T06:58:09;21.02;;;16.25;;
20277;SDS011;10298;49.716;17.806;2022-07-30T07:00:36;17.10;;;14.73;;
20277;SDS011;10298;49.716;17.806;2022-07-30T07:03:03;18.90;;;15.80;;
20277;SDS011;10298;49.716;17.806;2022-07-30T07:05:36;19.58;;;15.95;;
20277;SDS011;10298;49.716;17.806;2022-07-30T07:08:04;20.58;;;15.95;;
20277;SDS011;10298;49.716;17.806;2022-07-30T07:10:31;20.08;;;15.60;;
20277;SDS011;10298;49.716;17.806;2022-07-30T07:12:58;21.27;;;14.80;;
20277;SDS011;10298;49.716;17.806;2022-07-30T07:15:26;22.40;;;14.90;;
20277;SDS011;10298;49.716;17.806;2022-07-30T07:18:02;23.02;;;14.48;;
20277;SDS011;10298;49.716;17.806;2022-07-30T07:20:33;19.30;;;15.20;;
20277;SDS011;10298;49.716;17.806;2022-07-30T07:23:00;21.95;;;15.38;;
20277;SDS011;10298;49.716;17.806;2022-07-30T07:25:34;23.17;;;16.25;;
20277;SDS011;10298;49.716;17.806;2022-07-30T07:28:04;20.73;;;15.73;;
20277;SDS011;10298;49.716;17.806;2022-07-30T07:30:38;17.58;;;14.13;;
20277;SDS011;10298;49.716;17.806;2022-07-30T07:33:05;19.35;;;14.65;;
20277;SDS011;10298;49.716;17.806;2022-07-30T07:35:32;19.77;;;14.40;;
20277;SDS011;10298;49.716;17.806;2022-07-30T07:38:15;17.33;;;14.48;;
20277;SDS011;10298;49.716;17.806;2022-07-30T07:40:43;16.65;;;13.57;;
20277;SDS011;10298;49.716;17.806;2022-07-30T07:43:10;15.50;;;12.45;;
20277;SDS011;10298;49.716;17.806;2022-07-30T07:45:37;16.27;;;13.38;;
20277;SDS011;10298;49.716;17.806;2022-07-30T07:48:04;15.15;;;12.95;;
20277;SDS011;10298;49.716;17.806;2022-07-30T07:50:31;14.32;;;12.65;;
20277;SDS011;10298;49.716;17.806;2022-07-30T07:52:58;14.63;;;12.07;;
20277;SDS011;10298;49.716;17.806;2022-07-30T07:55:25;17.17;;;12.50;;
20277;SDS011;10298;49.716;17.806;2022-07-30T07:57:52;14.30;;;11.90;;
20277;SDS011;10298;49.716;17.806;2022-07-30T08:00:19;14.13;;;12.02;;
20277;SDS011;10298;49.716;17.806;2022-07-30T08:02:47;14.38;;;11.70;;
20277;SDS011;10298;49.716;17.806;2022-07-30T08:05:14;16.90;;;11.38;;
20277;SDS011;10298;49.716;17.806;2022-07-30T08:07:42;11.68;;;10.48;;
20277;SDS011;10298;49.716;17.806;2022-07-30T08:10:10;13.73;;;10.43;;
20277;SDS011;10298;49.716;17.806;2022-07-30T08:12:39;13.05;;;10.65;;
20277;SDS011;10298;49.716;17.806;2022-07-30T08:15:06;14.05;;;10.68;;
20277;SDS011;10298;49.716;17.806;2022-07-30T08:17:40;12.02;;;10.25;;
20277;SDS011;10298;49.716;17.806;2022-07-30T08:20:08;14.02;;;10.18;;
20277;SDS011;10298;49.716;17.806;2022-07-30T08:22:35;15.70;;;10.40;;
20277;SDS011;10298;49.716;17.806;2022-07-30T08:25:02;12.40;;;10.95;;
20277;SDS011;10298;49.716;17.806;2022-07-30T08:27:30;12.43;;;9.57;;
20277;SDS011;10298;49.716;17.806;2022-07-30T08:30:01;11.13;;;9.65;;
20277;SDS011;10298;49.716;17.806;2022-07-30T08:32:31;11.50;;;10.30;;
20277;SDS011;10298;49.716;17.806;2022-07-30T08:34:58;14.40;;;10.20;;
20277;SDS011;10298;49.716;17.806;2022-07-30T08:37:25;14.98;;;11.23;;
20277;SDS011;10298;49.716;17.806;2022-07-30T08:39:52;14.40;;;11.40;;
20277;SDS011;10298;49.716;17.806;2022-07-30T08:42:19;14.02;;;11.50;;
20277;SDS011;10298;49.716;17.806;2022-07-30T08:44:47;15.57;;;10.80;;
20277;SDS011;10298;49.716;17.806;2022-07-30T08:47:17;15.45;;;12.88;;
20277;SDS011;10298;49.716;17.806;2022-07-30T08:49:47;14.63;;;12.52;;
20277;SDS011;10298;49.716;17.806;2022-07-30T08:52:14;15.10;;;13.43;;
20277;SDS011;10298;49.716;17.806;2022-07-30T08:54:41;15.73;;;14.13;;
20277;SDS011;10298;49.716;17.806;2022-07-30T08:57:10;15.27;;;13.68;;
20277;SDS011;10298;49.716;17.806;2022-07-30T08:59:37;18.45;;;15.90;;
20277;SDS011;10298;49.716;17.806;2022-07-30T09:02:25;16.48;;;14.60;;
20277;SDS011;10298;49.716;17.806;2022-07-30T09:04:54;15.55;;;13.95;;
20277;SDS011;10298;49.716;17.806;2022-07-30T09:07:21;16.13;;;14.43;;
20277;SDS011;10298;49.716;17.806;2022-07-30T09:09:48;18.38;;;14.98;;
20277;SDS011;10298;49.716;17.806;2022-07-30T09:12:31;17.40;;;15.40;;
20277;SDS011;10298;49.716;17.806;2022-07-30T09:20:33;17.85;;;15.52;;
20277;SDS011;10298;49.716;17.806;2022-07-30T09:23:02;16.67;;;14.88;;
20277;SDS011;10298;49.716;17.806;2022-07-30T09:25:37;17.42;;;15.20;;
20277;SDS011;10298;49.716;17.806;2022-07-30T09:28:06;17.40;;;14.63;;
20277;SDS011;10298;49.716;17.806;2022-07-30T09:33:13;16.33;;;14.55;;
20277;SDS011;10298;49.716;17.806;2022-07-30T09:35:43;16.25;;;14.73;;
20277;SDS011;10298;49.716;17.806;2022-07-30T09:38:10;16.42;;;14.73;;
20277;SDS011;10298;49.716;17.806;2022-07-30T09:40:37;15.35;;;13.57;;
20277;SDS011;10298;49.716;17.806;2022-07-30T09:43:08;15.80;;;14.20;;
20277;SDS011;10298;49.716;17.806;2022-07-30T09:45:48;15.52;;;13.93;;
20277;SDS011;10298;49.716;17.806;2022-07-30T09:48:26;14.70;;;12.85;;
20277;SDS011;10298;49.716;17.806;2022-07-30T09:50:54;12.43;;;11.13;;
20277;SDS011;10298;49.716;17.806;2022-07-30T09:53:22;13.18;;;11.80;;
20277;SDS011;10298;49.716;17.806;2022-07-30T09:55:49;12.02;;;10.82;;
20277;SDS011;10298;49.716;17.806;2022-07-30T09:58:16;12.05;;;10.75;;
20277;SDS011;10298;49.716;17.806;2022-07-30T10:00:56;12.13;;;10.35;;
20277;SDS011;10298;49.716;17.806;2022-07-30T10:03:26;12.70;;;10.38;;
20277;SDS011;10298;49.716;17.806;2022-07-30T10:06:06;11.40;;;10.20;;
20277;SDS011;10298;49.716;17.806;2022-07-30T10:08:37;13.90;;;10.30;;
20277;SDS011;10298;49.716;17.806;2022-07-30T10:11:12;12.13;;;8.60;;
20277;SDS011;10298;49.716;17.806;2022-07-30T10:13:52;10.02;;;8.48;;
20277;SDS011;10298;49.716;17.806;2022-07-30T10:16:20;11.15;;;8.32;;
20277;SDS011;10298;49.716;17.806;2022-07-30T10:18:50;12.48;;;7.95;;
20277;SDS011;10298;49.716;17.806;2022-07-30T10:21:17;9.75;;;8.07;;
20277;SDS011;10298;49.716;17.806;2022-07-30T10:23:45;12.27;;;6.90;;
20277;SDS011;10298;49.716;17.806;2022-07-30T10:26:15;9.55;;;6.90;;
20277;SDS011;10298;49.716;17.806;2022-07-30T10:28:43;12.15;;;6.22;;
20277;SDS011;10298;49.716;17.806;2022-07-30T10:31:11;8.55;;;5.85;;
20277;SDS011;10298;49.716;17.806;2022-07-30T10:34:00;8.35;;;5.70;;
20277;SDS011;10298;49.716;17.806;2022-07-30T10:36:27;8.18;;;5.78;;
20277;SDS011;10298;49.716;17.806;2022-07-30T10:38:55;7.38;;;5.63;;
20277;SDS011;10298;49.716;17.806;2022-07-30T10:41:28;6.55;;;5.25;;
20277;SDS011;10298;49.716;17.806;2022-07-30T10:47:17;6.25;;;5.35;;
20277;SDS011;10298;49.716;17.806;2022-07-30T10:52:41;6.65;;;5.22;;
20277;SDS011;10298;49.716;17.806;2022-07-30T10:55:13;8.10;;;4.80;;
20277;SDS011;10298;49.716;17.806;2022-07-30T11:08:50;5.32;;;3.95;;
20277;SDS011;10298;49.716;17.806;2022-07-30T11:14:08;6.53;;;4.03;;
20277;SDS011;10298;49.716;17.806;2022-07-30T11:19:05;6.65;;;3.78;;
20277;SDS011;10298;49.716;17.806;2022-07-30T11:22:20;6.00;;;3.75;;
20277;SDS011;10298;49.716;17.806;2022-07-30T11:24:48;4.43;;;2.97;;
20277;SDS011;10298;49.716;17.806;2022-07-30T11:32:52;5.03;;;3.47;;
20277;SDS011;10298;49.716;17.806;2022-07-30T11:35:43;4.30;;;3.13;;
20277;SDS011;10298;49.716;17.806;2022-07-30T11:41:17;5.68;;;3.03;;
20277;SDS011;10298;49.716;17.806;2022-07-30T11:43:44;4.13;;;2.92;;
20277;SDS011;10298;49.716;17.806;2022-07-30T11:46:17;3.50;;;2.53;;
20277;SDS011;10298;49.716;17.806;2022-07-30T11:49:01;4.13;;;2.33;;
20277;SDS011;10298;49.716;17.806;2022-07-30T11:51:40;4.70;;;2.38;;
20277;SDS011;10298;49.716;17.806;2022-07-30T11:54:09;4.63;;;2.63;;
20277;SDS011;10298;49.716;17.806;2022-07-30T11:56:47;3.78;;;2.45;;
20277;SDS011;10298;49.716;17.806;2022-07-30T11:59:18;3.13;;;2.30;;
20277;SDS011;10298;49.716;17.806;2022-07-30T12:01:49;3.50;;;2.40;;
20277;SDS011;10298;49.716;17.806;2022-07-30T12:04:17;3.70;;;2.50;;
20277;SDS011;10298;49.716;17.806;2022-07-30T12:06:45;3.50;;;2.53;;
20277;SDS011;10298;49.716;17.806;2022-07-30T12:09:23;5.00;;;2.70;;
20277;SDS011;10298;49.716;17.806;2022-07-30T12:11:55;4.35;;;2.95;;
20277;SDS011;10298;49.716;17.806;2022-07-30T12:14:22;4.93;;;2.78;;
20277;SDS011;10298;49.716;17.806;2022-07-30T12:16:52;4.22;;;2.22;;
20277;SDS011;10298;49.716;17.806;2022-07-30T12:19:20;4.45;;;2.35;;
20277;SDS011;10298;49.716;17.806;2022-07-30T12:21:46;3.63;;;2.60;;
20277;SDS011;10298;49.716;17.806;2022-07-30T12:24:22;3.60;;;2.60;;
20277;SDS011;10298;49.716;17.806;2022-07-30T12:26:51;4.32;;;2.83;;
20277;SDS011;10298;49.716;17.806;2022-07-30T12:29:29;6.15;;;2.63;;
20277;SDS011;10298;49.716;17.806;2022-07-30T12:31:57;4.07;;;2.85;;
20277;SDS011;10298;49.716;17.806;2022-07-30T12:34:25;4.97;;;2.60;;
20277;SDS011;10298;49.716;17.806;2022-07-30T12:36:52;4.15;;;2.70;;
20277;SDS011;10298;49.716;17.806;2022-07-30T12:39:24;3.83;;;2.88;;
20277;SDS011;10298;49.716;17.806;2022-07-30T12:41:52;5.03;;;3.00;;
20277;SDS011;10298;49.716;17.806;2022-07-30T12:44:39;3.97;;;2.92;;
20277;SDS011;10298;49.716;17.806;2022-07-30T12:47:22;4.05;;;2.90;;
20277;SDS011;10298;49.716;17.806;2022-07-30T12:49:54;4.30;;;2.50;;
20277;SDS011;10298;49.716;17.806;2022-07-30T12:52:26;5.47;;;3.00;;
20277;SDS011;10298;49.716;17.806;2022-07-30T13:00:23;5.10;;;2.80;;
20277;SDS011;10298;49.716;17.806;2022-07-30T13:02:55;3.55;;;2.55;;
20277;SDS011;10298;49.716;17.806;2022-07-30T13:08:10;4.32;;;2.78;;
20277;SDS011;10298;49.716;17.806;2022-07-30T13:10:36;4.28;;;2.95;;
20277;SDS011;10298;49.716;17.806;2022-07-30T13:13:04;5.53;;;2.60;;
20277;SDS011;10298;49.716;17.806;2022-07-30T13:15:31;5.15;;;2.72;;
20277;SDS011;10298;49.716;17.806;2022-07-30T13:17:57;3.40;;;2.40;;
20277;SDS011;10298;49.716;17.806;2022-07-30T13:20:25;3.92;;;2.85;;
20277;SDS011;10298;49.716;17.806;2022-07-30T13:22:51;3.75;;;2.70;;
20277;SDS011;10298;49.716;17.806;2022-07-30T13:25:18;4.60;;;2.58;;
20277;SDS011;10298;49.716;17.806;2022-07-30T13:27:45;4.70;;;2.75;;
20277;SDS011;10298;49.716;17.806;2022-07-30T13:30:13;4.03;;;2.90;;
20277;SDS011;10298;49.716;17.806;2022-07-30T13:32:41;4.15;;;2.90;;
20277;SDS011;10298;49.716;17.806;2022-07-30T13:35:08;5.05;;;2.97;;
20277;SDS011;10298;49.716;17.806;2022-07-30T13:37:35;4.05;;;2.70;;
20277;SDS011;10298;49.716;17.806;2022-07-30T13:40:04;6.13;;;3.15;;
20277;SDS011;10298;49.716;17.806;2022-07-30T13:42:32;4.47;;;3.15;;
20277;SDS011;10298;49.716;17.806;2022-07-30T13:44:59;5.82;;;3.17;;
20277;SDS011;10298;49.716;17.806;2022-07-30T13:47:26;4.47;;;3.22;;
20277;SDS011;10298;49.716;17.806;2022-07-30T13:49:53;4.60;;;3.30;;
20277;SDS011;10298;49.716;17.806;2022-07-30T13:52:20;4.18;;;3.03;;
20277;SDS011;10298;49.716;17.806;2022-07-30T13:54:46;4.65;;;3.00;;
20277;SDS011;10298;49.716;17.806;2022-07-30T13:57:16;3.75;;;2.83;;
20277;SDS011;10298;49.716;17.806;2022-07-30T13:59:43;3.97;;;2.97;;
20277;SDS011;10298;49.716;17.806;2022-07-30T14:02:10;3.88;;;2.83;;
20277;SDS011;10298;49.716;17.806;2022-07-30T14:04:37;4.18;;;3.10;;
20277;SDS011;10298;49.716;17.806;2022-07-30T14:07:04;4.68;;;3.45;;
20277;SDS011;10298;49.716;17.806;2022-07-30T14:09:31;4.60;;;3.10;;
20277;SDS011;10298;49.716;17.806;2022-07-30T14:12:09;7.30;;;3.50;;
20277;SDS011;10298;49.716;17.806;2022-07-30T14:14:36;4.90;;;3.33;;
20277;SDS011;10298;49.716;17.806;2022-07-30T14:17:03;4.18;;;3.15;;
20277;SDS011;10298;49.716;17.806;2022-07-30T14:19:30;4.50;;;3.53;;
20277;SDS011;10298;49.716;17.806;2022-07-30T14:21:57;4.72;;;3.17;;
20277;SDS011;10298;49.716;17.806;2022-07-30T14:24:24;7.78;;;3.30;;
20277;SDS011;10298;49.716;17.806;2022-07-30T14:26:51;6.00;;;3.33;;
20277;SDS011;10298;49.716;17.806;2022-07-30T14:29:24;4.22;;;3.30;;
20277;SDS011;10298;49.716;17.806;2022-07-30T14:31:51;4.30;;;3.40;;
20277;SDS011;10298;49.716;17.806;2022-07-30T14:34:18;7.47;;;4.10;;
20277;SDS011;10298;49.716;17.806;2022-07-30T14:36:45;4.85;;;3.20;;
20277;SDS011;10298;49.716;17.806;2022-07-30T14:39:13;5.70;;;3.33;;
20277;SDS011;10298;49.716;17.806;2022-07-30T14:41:40;4.20;;;3.00;;
20277;SDS011;10298;49.716;17.806;2022-07-30T14:44:08;5.90;;;3.40;;
20277;SDS011;10298;49.716;17.806;2022-07-30T14:46:37;5.70;;;2.97;;
20277;SDS011;10298;49.716;17.806;2022-07-30T14:49:18;6.03;;;3.92;;
20277;SDS011;10298;49.716;17.806;2022-07-30T14:51:46;5.22;;;3.63;;
20277;SDS011;10298;49.716;17.806;2022-07-30T14:54:15;4.78;;;3.22;;
20277;SDS011;10298;49.716;17.806;2022-07-30T14:56:42;6.97;;;3.60;;
20277;SDS011;10298;49.716;17.806;2022-07-30T14:59:09;11.95;;;4.55;;
20277;SDS011;10298;49.716;17.806;2022-07-30T15:01:36;4.25;;;3.13;;
20277;SDS011;10298;49.716;17.806;2022-07-30T15:04:03;5.93;;;3.35;;
20277;SDS011;10298;49.716;17.806;2022-07-30T15:06:35;6.70;;;3.70;;
20277;SDS011;10298;49.716;17.806;2022-07-30T15:09:02;13.23;;;3.97;;
20277;SDS011;10298;49.716;17.806;2022-07-30T15:11:29;5.88;;;3.65;;
20277;SDS011;10298;49.716;17.806;2022-07-30T15:14:16;4.80;;;3.58;;
20277;SDS011;10298;49.716;17.806;2022-07-30T15:16:45;7.10;;;3.95;;
20277;SDS011;10298;49.716;17.806;2022-07-30T15:19:14;6.53;;;4.00;;
20277;SDS011;10298;49.716;17.806;2022-07-30T15:21:41;7.05;;;4.20;;